Time;durP1;ratioP1;P1;durP2;ratioP2;P2;SDS_P1;SDS_P2;PMS_P1;PMS_P2;Temp;Humidity;BMP_temperature;BMP_pressure;BME280_temperature;BME280_humidity;BME280_pressure;Samples;Min_cycle;Max_cycle;Signal;HPM_P1;HPM_P2
2022/07/14 00:01:42;;;;;;;2.42;1.70;;;;;;;;;;5030635;28;20033;-75
2022/07/14 00:04:07;;;;;;;3.70;1.90;;;;;;;;;;5030160;28;20074;-73
2022/07/14 00:06:33;;;;;;;2.05;1.77;;;;;;;;;;5040715;28;20040;-76
2022/07/14 00:08:59;;;;;;;2.25;1.77;;;;;;;;;;5039733;28;20040;-74
2022/07/14 00:11:25;;;;;;;4.40;2.03;;;;;;;;;;5039847;28;20029;-74
2022/07/14 00:13:50;;;;;;;1.95;1.77;;;;;;;;;;5032212;28;20052;-75
2022/07/14 00:16:16;;;;;;;2.20;1.48;;;;;;;;;;5039737;28;20033;-76
2022/07/14 00:18:44;;;;;;;1.70;1.60;;;;;;;;;;5038944;28;20481;-75
2022/07/14 00:21:13;;;;;;;3.08;1.70;;;;;;;;;;5040483;28;20032;-80
2022/07/14 00:23:38;;;;;;;2.65;1.80;;;;;;;;;;5039374;28;20029;-74
2022/07/14 00:26:04;;;;;;;1.60;1.50;;;;;;;;;;5040097;28;20036;-79
2022/07/14 00:28:29;;;;;;;2.55;1.88;;;;;;;;;;5041474;28;20029;-75
2022/07/14 00:30:55;;;;;;;2.10;1.60;;;;;;;;;;5037290;28;20029;-76
2022/07/14 00:33:20;;;;;;;2.83;1.83;;;;;;;;;;5034069;28;20692;-73
2022/07/14 00:35:46;;;;;;;2.28;1.88;;;;;;;;;;5040826;28;20035;-75
2022/07/14 00:38:11;;;;;;;1.73;1.63;;;;;;;;;;5040867;28;20107;-80
2022/07/14 00:40:36;;;;;;;4.10;1.77;;;;;;;;;;5041331;28;23120;-74
2022/07/14 00:43:02;;;;;;;2.00;1.52;;;;;;;;;;5040916;28;20048;-82
2022/07/14 00:45:27;;;;;;;1.90;1.80;;;;;;;;;;5039504;28;20033;-74
2022/07/14 00:47:52;;;;;;;1.70;1.60;;;;;;;;;;5028798;28;20101;-75
2022/07/14 00:50:18;;;;;;;2.60;1.95;;;;;;;;;;5033141;28;20080;-77
2022/07/14 00:52:44;;;;;;;2.80;1.77;;;;;;;;;;5028034;28;20037;-79
2022/07/14 00:55:12;;;;;;;2.10;1.90;;;;;;;;;;5037337;28;20028;-79
2022/07/14 00:57:37;;;;;;;2.08;1.67;;;;;;;;;;5041151;28;20032;-75
2022/07/14 01:00:04;;;;;;;3.90;1.73;;;;;;;;;;5039901;28;20113;-76
2022/07/14 01:02:29;;;;;;;2.50;1.83;;;;;;;;;;5027850;28;20090;-74
2022/07/14 01:04:55;;;;;;;2.60;1.60;;;;;;;;;;5033923;28;20025;-75
2022/07/14 01:07:20;;;;;;;2.95;1.83;;;;;;;;;;5043480;28;20111;-77
2022/07/14 01:09:46;;;;;;;2.80;1.90;;;;;;;;;;5043334;28;20068;-76
2022/07/14 01:12:12;;;;;;;2.03;1.77;;;;;;;;;;5054872;28;20033;-75
2022/07/14 01:14:38;;;;;;;4.95;1.67;;;;;;;;;;5037067;28;20044;-81
2022/07/14 01:17:04;;;;;;;2.60;1.70;;;;;;;;;;5031893;28;20105;-78
2022/07/14 01:19:29;;;;;;;2.30;1.60;;;;;;;;;;5036463;28;20024;-76
2022/07/14 01:21:55;;;;;;;1.60;1.50;;;;;;;;;;5038139;28;20389;-75
2022/07/14 01:24:21;;;;;;;4.47;1.88;;;;;;;;;;5044174;28;20032;-78
2022/07/14 01:26:47;;;;;;;6.28;2.00;;;;;;;;;;5040897;28;20440;-76
2022/07/14 01:29:12;;;;;;;2.22;1.63;;;;;;;;;;5043877;28;20040;-76
2022/07/14 01:31:38;;;;;;;1.60;1.50;;;;;;;;;;5044711;28;20020;-79
2022/07/14 01:34:03;;;;;;;2.20;1.50;;;;;;;;;;5042333;28;20033;-77
2022/07/14 01:36:28;;;;;;;2.33;1.77;;;;;;;;;;5034827;28;20028;-79
2022/07/14 01:38:54;;;;;;;2.42;1.92;;;;;;;;;;5042359;28;20051;-76
2022/07/14 01:41:20;;;;;;;2.17;1.67;;;;;;;;;;5043940;28;20056;-80
2022/07/14 01:43:46;;;;;;;2.80;1.80;;;;;;;;;;5041916;28;20113;-77
2022/07/14 01:46:11;;;;;;;2.25;1.55;;;;;;;;;;5039360;28;20120;-78
2022/07/14 01:48:37;;;;;;;1.98;1.80;;;;;;;;;;5036998;28;20116;-79
2022/07/14 01:51:02;;;;;;;4.10;2.00;;;;;;;;;;5035797;28;20040;-77
2022/07/14 01:53:27;;;;;;;2.72;1.80;;;;;;;;;;5037715;28;20099;-76
2022/07/14 01:55:53;;;;;;;1.65;1.55;;;;;;;;;;5041827;28;20047;-77
2022/07/14 01:58:18;;;;;;;2.22;2.03;;;;;;;;;;5035004;28;20083;-77
2022/07/14 02:00:43;;;;;;;2.15;1.90;;;;;;;;;;5043380;28;20086;-79
2022/07/14 02:03:09;;;;;;;2.33;1.90;;;;;;;;;;5043687;28;20036;-76
2022/07/14 02:05:34;;;;;;;2.63;1.73;;;;;;;;;;5033466;28;20448;-77
2022/07/14 02:08:00;;;;;;;1.80;1.70;;;;;;;;;;5033468;28;20067;-73
2022/07/14 02:13:09;;;;;;;4.13;1.83;;;;;;;;;;5043971;28;20462;-74
2022/07/14 02:15:34;;;;;;;2.28;1.70;;;;;;;;;;5041416;28;20025;-76
2022/07/14 02:17:59;;;;;;;2.35;2.15;;;;;;;;;;5029061;28;20032;-76
2022/07/14 02:20:25;;;;;;;3.10;1.95;;;;;;;;;;5040821;28;20104;-77
2022/07/14 02:22:50;;;;;;;2.63;2.05;;;;;;;;;;5032021;28;20746;-76
2022/07/14 02:25:16;;;;;;;1.77;1.67;;;;;;;;;;5043704;28;20024;-76
2022/07/14 02:27:41;;;;;;;1.85;1.75;;;;;;;;;;5040844;28;20051;-76
2022/07/14 02:30:07;;;;;;;2.35;1.73;;;;;;;;;;5034807;28;20448;-75
2022/07/14 02:32:32;;;;;;;2.53;1.90;;;;;;;;;;5035137;28;21050;-76
2022/07/14 02:34:58;;;;;;;2.42;1.83;;;;;;;;;;5032290;28;20021;-75
2022/07/14 02:37:23;;;;;;;3.05;1.90;;;;;;;;;;5037866;28;20029;-73
2022/07/14 02:39:49;;;;;;;3.05;1.88;;;;;;;;;;5043244;28;20375;-76
2022/07/14 02:42:14;;;;;;;3.67;2.10;;;;;;;;;;5021810;28;20116;-80
2022/07/14 02:44:40;;;;;;;3.58;1.73;;;;;;;;;;5041965;28;20344;-80
2022/07/14 02:47:05;;;;;;;4.00;1.90;;;;;;;;;;5041439;28;20119;-78
2022/07/14 02:49:30;;;;;;;2.08;1.88;;;;;;;;;;5041467;28;20103;-77
2022/07/14 02:51:56;;;;;;;4.07;1.95;;;;;;;;;;5039885;28;20025;-79
2022/07/14 02:54:21;;;;;;;2.58;1.92;;;;;;;;;;5039570;28;20033;-78
2022/07/14 02:56:46;;;;;;;2.10;1.75;;;;;;;;;;5039970;28;20107;-79
2022/07/14 02:59:12;;;;;;;2.75;1.70;;;;;;;;;;5041284;28;20031;-78
2022/07/14 03:01:37;;;;;;;2.03;1.77;;;;;;;;;;5042373;28;20332;-76
2022/07/14 03:04:02;;;;;;;1.77;1.67;;;;;;;;;;5039589;28;20036;-76
2022/07/14 03:06:28;;;;;;;2.67;2.00;;;;;;;;;;5029667;28;20038;-77
2022/07/14 03:08:53;;;;;;;2.90;1.95;;;;;;;;;;5032330;28;20025;-79
2022/07/14 03:11:19;;;;;;;2.95;2.00;;;;;;;;;;5046439;28;20029;-80
2022/07/14 03:13:44;;;;;;;5.32;2.00;;;;;;;;;;5041561;28;20032;-79
2022/07/14 03:16:10;;;;;;;1.98;1.88;;;;;;;;;;5038915;28;20087;-80
2022/07/14 03:18:36;;;;;;;2.50;2.30;;;;;;;;;;5038018;28;20032;-82
2022/07/14 03:21:21;;;;;;;2.50;1.85;;;;;;;;;;5041900;28;20025;-81
2022/07/14 03:23:47;;;;;;;2.70;1.67;;;;;;;;;;5034983;28;20032;-80
2022/07/14 03:26:12;;;;;;;2.20;1.90;;;;;;;;;;5036627;28;20455;-80
2022/07/14 03:28:37;;;;;;;2.78;2.10;;;;;;;;;;5039819;28;20068;-79
2022/07/14 03:31:03;;;;;;;2.53;2.33;;;;;;;;;;5038579;28;20021;-80
2022/07/14 03:33:28;;;;;;;1.90;1.80;;;;;;;;;;5037487;28;20032;-79
2022/07/14 03:35:53;;;;;;;3.17;1.85;;;;;;;;;;5039523;28;20037;-80
2022/07/14 03:38:19;;;;;;;4.13;2.10;;;;;;;;;;5037320;28;20035;-79
2022/07/14 03:40:44;;;;;;;2.63;2.00;;;;;;;;;;5037367;28;20474;-78
2022/07/14 03:43:10;;;;;;;3.55;2.22;;;;;;;;;;5036423;28;20040;-83
2022/07/14 03:45:35;;;;;;;2.75;2.00;;;;;;;;;;5034652;28;20044;-81
2022/07/14 03:48:00;;;;;;;2.17;1.95;;;;;;;;;;5040674;28;20029;-82
2022/07/14 03:50:26;;;;;;;3.22;2.10;;;;;;;;;;5039445;28;20414;-80
2022/07/14 03:52:51;;;;;;;3.33;2.22;;;;;;;;;;5040261;28;20049;-81
2022/07/14 03:55:17;;;;;;;4.25;2.17;;;;;;;;;;5041210;28;20067;-81
2022/07/14 03:57:42;;;;;;;5.35;2.38;;;;;;;;;;5040905;28;20025;-81
2022/07/14 04:00:08;;;;;;;2.40;2.13;;;;;;;;;;5041467;28;20027;-82
2022/07/14 04:02:33;;;;;;;3.03;2.20;;;;;;;;;;5038380;28;20017;-81
2022/07/14 04:04:58;;;;;;;2.45;2.10;;;;;;;;;;5040174;28;20027;-79
2022/07/14 04:07:24;;;;;;;4.45;1.98;;;;;;;;;;5028888;28;20044;-80
2022/07/14 04:09:50;;;;;;;2.45;2.05;;;;;;;;;;5041335;28;20023;-81
2022/07/14 04:12:15;;;;;;;3.38;2.47;;;;;;;;;;5039057;28;20025;-81
2022/07/14 04:14:40;;;;;;;4.78;2.40;;;;;;;;;;5038897;28;20033;-81
2022/07/14 04:17:06;;;;;;;3.90;2.25;;;;;;;;;;5039186;28;20383;-81
2022/07/14 04:19:31;;;;;;;3.78;2.42;;;;;;;;;;5040400;28;20028;-79
2022/07/14 04:21:56;;;;;;;4.72;2.10;;;;;;;;;;5039606;28;20031;-80
2022/07/14 04:24:22;;;;;;;5.28;2.35;;;;;;;;;;5041179;28;20067;-81
2022/07/14 04:26:47;;;;;;;2.53;2.30;;;;;;;;;;5040545;28;20064;-82
2022/07/14 04:29:13;;;;;;;4.13;2.67;;;;;;;;;;5040647;28;20017;-83
2022/07/14 04:31:38;;;;;;;2.92;2.45;;;;;;;;;;5040452;28;20025;-82
2022/07/14 04:34:04;;;;;;;6.22;2.28;;;;;;;;;;5041210;28;20029;-80
2022/07/14 04:36:30;;;;;;;3.88;2.33;;;;;;;;;;5038894;28;20075;-80
2022/07/14 04:38:56;;;;;;;3.63;2.25;;;;;;;;;;5039538;28;20036;-82
2022/07/14 04:41:22;;;;;;;2.70;2.13;;;;;;;;;;5041073;28;20031;-81
2022/07/14 04:43:47;;;;;;;1.80;1.70;;;;;;;;;;5040413;28;20029;-80
2022/07/14 04:46:13;;;;;;;3.47;2.08;;;;;;;;;;5039309;28;20032;-81
2022/07/14 04:54:06;;;;;;;3.92;2.33;;;;;;;;;;5040385;28;20056;-80
2022/07/14 04:56:31;;;;;;;2.58;2.38;;;;;;;;;;5040269;28;20025;-80
2022/07/14 04:58:57;;;;;;;2.50;1.75;;;;;;;;;;5041440;28;20048;-80
2022/07/14 05:01:22;;;;;;;2.22;2.00;;;;;;;;;;5040835;28;20295;-81
2022/07/14 05:03:48;;;;;;;3.03;1.98;;;;;;;;;;5039862;28;20033;-80
2022/07/14 05:06:13;;;;;;;2.90;2.13;;;;;;;;;;5039698;28;20041;-82
2022/07/14 05:08:38;;;;;;;4.82;2.00;;;;;;;;;;5040461;28;20102;-81
2022/07/14 05:11:04;;;;;;;2.10;1.90;;;;;;;;;;5040981;28;20410;-81
2022/07/14 05:13:29;;;;;;;3.58;1.73;;;;;;;;;;5040683;28;20389;-81
2022/07/14 05:15:55;;;;;;;2.22;2.03;;;;;;;;;;5039676;28;20040;-81
2022/07/14 05:18:20;;;;;;;3.72;1.77;;;;;;;;;;5040140;28;20430;-81
2022/07/14 05:20:45;;;;;;;2.45;2.25;;;;;;;;;;5036004;28;20330;-77
2022/07/14 05:23:11;;;;;;;4.47;1.80;;;;;;;;;;5035073;28;20363;-79
2022/07/14 05:25:37;;;;;;;2.15;2.05;;;;;;;;;;5033045;28;20061;-79
2022/07/14 05:28:03;;;;;;;1.70;1.60;;;;;;;;;;5038334;28;20040;-81
2022/07/14 05:30:28;;;;;;;4.60;1.95;;;;;;;;;;5031273;28;20028;-81
2022/07/14 05:32:56;;;;;;;2.03;1.70;;;;;;;;;;5034023;28;20064;-80
2022/07/14 05:35:21;;;;;;;2.50;1.90;;;;;;;;;;5040511;28;20043;-78
2022/07/14 05:37:47;;;;;;;2.22;1.90;;;;;;;;;;5039990;28;20412;-83
2022/07/14 05:40:12;;;;;;;3.40;1.90;;;;;;;;;;5029866;28;20029;-81
2022/07/14 05:42:37;;;;;;;1.90;1.70;;;;;;;;;;5039986;28;20500;-80
2022/07/14 05:45:03;;;;;;;2.30;1.42;;;;;;;;;;5039413;28;20037;-79
2022/07/14 05:47:28;;;;;;;2.03;1.80;;;;;;;;;;5039075;28;20025;-80
2022/07/14 05:49:54;;;;;;;1.98;1.60;;;;;;;;;;5040191;28;20436;-79
2022/07/14 05:52:19;;;;;;;1.83;1.58;;;;;;;;;;5040758;28;20044;-79
2022/07/14 05:54:44;;;;;;;5.38;2.33;;;;;;;;;;5043438;28;20112;-81
2022/07/14 05:57:10;;;;;;;2.70;1.98;;;;;;;;;;5041662;28;20067;-80
2022/07/14 05:59:35;;;;;;;4.00;2.15;;;;;;;;;;5039386;28;20764;-78
2022/07/14 06:02:01;;;;;;;5.30;1.80;;;;;;;;;;5035871;28;20095;-81
2022/07/14 06:04:26;;;;;;;2.70;1.70;;;;;;;;;;5043586;28;20097;-81
2022/07/14 06:06:51;;;;;;;4.47;1.60;;;;;;;;;;5042552;28;20017;-75
2022/07/14 06:09:17;;;;;;;3.55;1.80;;;;;;;;;;5042756;28;20070;-78
2022/07/14 06:11:44;;;;;;;3.92;1.85;;;;;;;;;;5044122;28;20032;-77
2022/07/14 06:14:10;;;;;;;1.83;1.50;;;;;;;;;;5042203;28;20037;-76
2022/07/14 06:16:35;;;;;;;3.92;1.70;;;;;;;;;;5042875;28;20041;-75
2022/07/14 06:19:01;;;;;;;3.53;2.10;;;;;;;;;;5040270;28;20123;-75
2022/07/14 06:21:26;;;;;;;2.35;1.15;;;;;;;;;;5041917;28;20020;-77
2022/07/14 06:23:52;;;;;;;3.58;1.90;;;;;;;;;;5041112;28;20044;-74
2022/07/14 06:26:17;;;;;;;3.15;1.48;;;;;;;;;;5042216;28;20517;-76
2022/07/14 06:28:43;;;;;;;3.40;1.50;;;;;;;;;;5042173;28;20504;-75
2022/07/14 06:31:08;;;;;;;2.72;1.27;;;;;;;;;;5040650;28;20027;-75
2022/07/14 06:33:34;;;;;;;3.97;1.60;;;;;;;;;;5042119;28;20459;-77
2022/07/14 06:35:59;;;;;;;1.60;1.50;;;;;;;;;;5042464;28;20025;-74
2022/07/14 06:38:24;;;;;;;2.90;1.33;;;;;;;;;;5042315;28;20056;-77
2022/07/14 06:40:50;;;;;;;7.63;1.55;;;;;;;;;;5032227;28;20329;-74
2022/07/14 06:43:15;;;;;;;3.08;1.50;;;;;;;;;;5041371;28;20344;-77
2022/07/14 06:45:41;;;;;;;2.08;1.30;;;;;;;;;;5041367;28;20068;-76
2022/07/14 06:48:06;;;;;;;1.30;1.20;;;;;;;;;;5042519;28;20028;-77
2022/07/14 06:50:31;;;;;;;4.18;1.65;;;;;;;;;;5040602;28;20029;-75
2022/07/14 06:52:57;;;;;;;1.42;1.33;;;;;;;;;;5041907;28;20506;-75
2022/07/14 06:55:23;;;;;;;2.33;1.30;;;;;;;;;;5041253;28;20076;-76
2022/07/14 06:57:50;;;;;;;4.53;1.25;;;;;;;;;;5041732;28;20117;-76
2022/07/14 07:00:16;;;;;;;2.40;1.42;;;;;;;;;;5040998;28;20032;-76
2022/07/14 07:02:41;;;;;;;2.78;1.23;;;;;;;;;;5041416;28;20028;-75
2022/07/14 07:07:55;;;;;;;1.02;1.00;;;;;;;;;;5041744;28;20032;-74
2022/07/14 07:10:20;;;;;;;1.92;1.35;;;;;;;;;;5041361;28;20063;-76
2022/07/14 07:12:46;;;;;;;1.23;1.10;;;;;;;;;;5041781;28;20077;-76
2022/07/14 07:15:11;;;;;;;1.52;1.40;;;;;;;;;;5041331;28;20036;-76
2022/07/14 07:17:36;;;;;;;1.48;1.00;;;;;;;;;;5040945;28;20021;-79
2022/07/14 07:20:02;;;;;;;1.20;1.10;;;;;;;;;;5040491;28;20088;-73
2022/07/14 07:22:28;;;;;;;1.45;1.30;;;;;;;;;;5042319;28;20021;-76
2022/07/14 07:24:53;;;;;;;6.35;1.30;;;;;;;;;;5040417;28;20403;-75
2022/07/14 07:27:18;;;;;;;1.40;1.20;;;;;;;;;;5040415;28;20464;-74
2022/07/14 07:29:44;;;;;;;1.45;1.35;;;;;;;;;;5041593;28;20348;-76
2022/07/14 07:32:11;;;;;;;5.20;2.00;;;;;;;;;;5040436;28;20021;-73
2022/07/14 07:34:37;;;;;;;4.38;1.30;;;;;;;;;;5038613;28;20021;-77
2022/07/14 07:37:02;;;;;;;2.25;1.33;;;;;;;;;;5040831;28;20037;-78
2022/07/14 07:39:28;;;;;;;3.22;1.52;;;;;;;;;;5041060;28;20417;-74
2022/07/14 07:41:55;;;;;;;2.10;1.50;;;;;;;;;;5041090;28;20033;-76
2022/07/14 07:44:21;;;;;;;1.30;1.20;;;;;;;;;;5041607;28;20440;-74
2022/07/14 07:46:46;;;;;;;3.75;1.40;;;;;;;;;;5040117;28;20028;-74
2022/07/14 07:49:11;;;;;;;1.77;1.10;;;;;;;;;;5030475;28;20111;-75
2022/07/14 07:51:38;;;;;;;1.30;1.00;;;;;;;;;;5041320;28;20025;-74
2022/07/14 07:54:05;;;;;;;1.85;1.13;;;;;;;;;;5040866;28;20049;-74
2022/07/14 07:56:30;;;;;;;2.08;1.10;;;;;;;;;;5041633;28;20033;-73
2022/07/14 07:58:56;;;;;;;2.67;1.17;;;;;;;;;;5040260;28;20025;-73
2022/07/14 08:01:22;;;;;;;1.13;1.10;;;;;;;;;;5040847;28;20032;-73
2022/07/14 08:03:47;;;;;;;1.58;0.98;;;;;;;;;;5039837;28;20055;-72
2022/07/14 08:06:12;;;;;;;1.05;0.95;;;;;;;;;;5041150;28;20443;-74
2022/07/14 08:08:38;;;;;;;0.90;0.90;;;;;;;;;;5041778;28;20028;-74
2022/07/14 08:11:03;;;;;;;0.80;0.80;;;;;;;;;;5039748;28;20037;-75
2022/07/14 08:13:29;;;;;;;1.10;1.00;;;;;;;;;;5038397;28;20143;-74
2022/07/14 08:15:58;;;;;;;1.60;1.20;;;;;;;;;;5039862;28;20032;-75
2022/07/14 08:18:24;;;;;;;2.53;1.05;;;;;;;;;;5030607;28;20142;-75
2022/07/14 08:20:50;;;;;;;1.67;1.15;;;;;;;;;;5034932;28;20091;-76
2022/07/14 08:23:15;;;;;;;6.53;1.30;;;;;;;;;;5040583;28;20036;-76
2022/07/14 08:25:41;;;;;;;5.53;1.50;;;;;;;;;;5040974;28;20118;-74
2022/07/14 08:28:06;;;;;;;1.65;1.15;;;;;;;;;;5039864;28;20017;-74
2022/07/14 08:30:31;;;;;;;2.05;1.02;;;;;;;;;;5039817;28;20021;-74
2022/07/14 08:32:57;;;;;;;1.10;1.00;;;;;;;;;;5041192;28;20459;-74
2022/07/14 08:35:23;;;;;;;1.35;0.90;;;;;;;;;;5041209;28;20036;-76
2022/07/14 08:37:49;;;;;;;1.08;0.90;;;;;;;;;;5040153;28;20017;-74
2022/07/14 08:40:16;;;;;;;6.95;1.08;;;;;;;;;;5039556;28;20021;-76
2022/07/14 08:42:42;;;;;;;2.22;1.13;;;;;;;;;;5038977;28;20523;-76
2022/07/14 08:45:08;;;;;;;1.27;1.08;;;;;;;;;;5040261;28;20131;-74
2022/07/14 08:47:34;;;;;;;2.63;0.90;;;;;;;;;;5038527;28;20025;-77
2022/07/14 08:50:00;;;;;;;0.85;0.85;;;;;;;;;;5041593;28;20089;-75
2022/07/14 08:52:25;;;;;;;1.27;0.95;;;;;;;;;;5037397;28;20041;-77
2022/07/14 08:54:51;;;;;;;1.17;1.08;;;;;;;;;;5027550;28;20566;-76
2022/07/14 08:57:16;;;;;;;2.47;1.00;;;;;;;;;;5028059;28;20020;-73
2022/07/14 08:59:41;;;;;;;0.90;0.88;;;;;;;;;;5034398;28;20029;-75
2022/07/14 09:02:07;;;;;;;1.33;0.90;;;;;;;;;;5040056;28;20530;-75
2022/07/14 09:04:32;;;;;;;2.97;0.93;;;;;;;;;;5040492;28;20104;-75
2022/07/14 09:06:57;;;;;;;1.23;1.13;;;;;;;;;;5040016;28;20029;-76
2022/07/14 09:09:24;;;;;;;2.25;1.23;;;;;;;;;;5040618;28;20031;-74
2022/07/14 09:11:50;;;;;;;0.82;0.82;;;;;;;;;;5040331;28;20112;-75
2022/07/14 09:14:16;;;;;;;4.13;1.13;;;;;;;;;;5040553;28;20491;-74
2022/07/14 09:16:41;;;;;;;2.13;0.80;;;;;;;;;;5039674;28;20033;-74
2022/07/14 09:19:07;;;;;;;0.82;0.80;;;;;;;;;;5041121;28;20029;-74
2022/07/14 09:21:33;;;;;;;1.02;0.90;;;;;;;;;;5040796;28;20079;-75
2022/07/14 09:23:59;;;;;;;3.55;1.10;;;;;;;;;;5039962;28;20135;-75
2022/07/14 09:26:24;;;;;;;0.70;0.70;;;;;;;;;;5040120;28;20085;-74
2022/07/14 09:28:50;;;;;;;1.27;1.20;;;;;;;;;;5032578;28;20419;-75
2022/07/14 09:31:21;;;;;;;3.58;1.30;;;;;;;;;;5032767;28;20429;-74
2022/07/14 09:33:47;;;;;;;1.23;1.13;;;;;;;;;;5031648;28;20040;-75
2022/07/14 09:36:20;;;;;;;2.85;1.10;;;;;;;;;;5032454;28;20037;-74
2022/07/14 09:38:45;;;;;;;1.58;1.40;;;;;;;;;;5032319;28;20025;-73
2022/07/14 09:41:11;;;;;;;1.65;0.95;;;;;;;;;;5033628;28;20089;-75
2022/07/14 09:43:36;;;;;;;2.60;1.00;;;;;;;;;;5030812;28;20444;-76
2022/07/14 09:46:01;;;;;;;1.15;1.05;;;;;;;;;;5033575;28;20035;-75
2022/07/14 09:48:27;;;;;;;2.55;1.17;;;;;;;;;;5032318;28;20036;-75
2022/07/14 09:50:57;;;;;;;1.48;1.13;;;;;;;;;;5032657;28;20029;-76
2022/07/14 09:53:28;;;;;;;3.35;1.20;;;;;;;;;;5030442;28;20052;-78
2022/07/14 09:55:56;;;;;;;1.60;1.13;;;;;;;;;;5031189;28;20033;-75
2022/07/14 09:58:22;;;;;;;2.72;1.90;;;;;;;;;;5032946;28;20648;-74
2022/07/14 10:01:01;;;;;;;2.50;1.98;;;;;;;;;;5030812;28;20059;-74
2022/07/14 10:03:28;;;;;;;2.47;1.60;;;;;;;;;;5032288;28;20059;-74
2022/07/14 10:05:54;;;;;;;1.50;1.40;;;;;;;;;;5033053;28;20463;-76
2022/07/14 10:08:22;;;;;;;1.50;1.27;;;;;;;;;;5034164;28;20104;-75
2022/07/14 10:10:48;;;;;;;1.23;1.00;;;;;;;;;;5031133;28;20474;-75
2022/07/14 10:13:15;;;;;;;1.55;1.13;;;;;;;;;;5032886;28;20051;-75
2022/07/14 10:15:41;;;;;;;2.17;1.40;;;;;;;;;;5029737;28;20184;-75
2022/07/14 10:18:07;;;;;;;1.30;1.20;;;;;;;;;;5029342;28;20130;-74
2022/07/14 10:20:33;;;;;;;3.00;1.30;;;;;;;;;;5028502;28;20025;-77
2022/07/14 10:23:00;;;;;;;1.48;1.20;;;;;;;;;;5029789;28;20032;-79
2022/07/14 10:25:25;;;;;;;3.40;1.35;;;;;;;;;;5030962;28;20040;-76
2022/07/14 10:27:51;;;;;;;2.15;1.40;;;;;;;;;;5028372;28;20033;-73
2022/07/14 10:30:17;;;;;;;3.80;1.30;;;;;;;;;;5032639;28;20104;-76
2022/07/14 10:32:47;;;;;;;2.58;1.02;;;;;;;;;;5039952;28;20029;-77
2022/07/14 10:35:16;;;;;;;1.48;1.10;;;;;;;;;;5042408;28;20051;-77
2022/07/14 10:38:17;;;;;;;1.10;0.90;;;;;;;;;;5041291;28;20022;-74
2022/07/14 10:41:01;;;;;;;1.90;1.05;;;;;;;;;;4967567;28;20042;-76
2022/07/14 10:43:37;;;;;;;3.42;1.30;;;;;;;;;;4965713;28;20070;-73
2022/07/14 10:46:03;;;;;;;1.15;0.98;;;;;;;;;;4968328;28;20118;-74
2022/07/14 10:48:28;;;;;;;3.67;0.98;;;;;;;;;;4969537;28;20042;-75
2022/07/14 10:51:31;;;;;;;5.00;1.10;;;;;;;;;;4968177;28;20034;-75
2022/07/14 10:54:13;;;;;;;2.58;0.90;;;;;;;;;;4926362;29;20079;-74
2022/07/14 10:56:39;;;;;;;1.27;0.85;;;;;;;;;;4925359;29;20046;-74
2022/07/14 10:59:23;;;;;;;3.13;1.08;;;;;;;;;;4925047;29;20019;-74
2022/07/14 11:02:08;;;;;;;2.83;1.20;;;;;;;;;;4926662;29;20039;-79
2022/07/14 11:04:52;;;;;;;1.77;1.10;;;;;;;;;;4924429;29;20036;-75
2022/07/14 11:07:36;;;;;;;1.73;1.13;;;;;;;;;;4924135;29;20043;-76
2022/07/14 11:10:04;;;;;;;1.80;1.10;;;;;;;;;;4925642;29;20035;-74
2022/07/14 11:12:29;;;;;;;1.17;0.98;;;;;;;;;;4923601;29;20023;-73
2022/07/14 11:14:55;;;;;;;0.80;0.80;;;;;;;;;;4953158;28;20347;-72
2022/07/14 11:17:40;;;;;;;0.70;0.70;;;;;;;;;;4977554;28;20042;-74
2022/07/14 11:20:08;;;;;;;2.75;0.70;;;;;;;;;;4975795;28;20509;-74
2022/07/14 11:22:34;;;;;;;0.88;0.75;;;;;;;;;;4978146;28;20042;-74
2022/07/14 11:25:00;;;;;;;3.22;0.70;;;;;;;;;;4976721;28;20042;-73
2022/07/14 11:27:37;;;;;;;0.80;0.80;;;;;;;;;;4994888;28;20150;-71
2022/07/14 11:30:21;;;;;;;1.13;0.88;;;;;;;;;;5041485;28;21214;-73
2022/07/14 11:32:56;;;;;;;3.22;0.90;;;;;;;;;;5041300;28;20025;-77
2022/07/14 11:38:22;;;;;;;1.23;0.80;;;;;;;;;;5042346;28;20509;-72
2022/07/14 11:40:49;;;;;;;1.02;0.77;;;;;;;;;;5041865;28;20021;-74
2022/07/14 11:43:30;;;;;;;5.40;1.20;;;;;;;;;;5024723;28;20025;-73
2022/07/14 11:45:56;;;;;;;1.00;0.88;;;;;;;;;;5041133;28;20337;-77
2022/07/14 11:48:27;;;;;;;2.63;0.90;;;;;;;;;;5040428;28;20024;-73
2022/07/14 11:50:59;;;;;;;2.35;0.77;;;;;;;;;;5041452;28;20040;-71
2022/07/14 11:53:27;;;;;;;1.02;0.85;;;;;;;;;;5042164;28;20048;-71
2022/07/14 11:55:54;;;;;;;4.45;1.10;;;;;;;;;;5041447;28;20443;-70
2022/07/14 11:58:22;;;;;;;1.75;0.88;;;;;;;;;;5040618;28;20363;-76
2022/07/14 12:00:57;;;;;;;2.17;1.05;;;;;;;;;;5041844;28;20111;-76
2022/07/14 12:03:23;;;;;;;0.95;0.90;;;;;;;;;;5041949;28;20036;-71
2022/07/14 12:05:55;;;;;;;1.00;0.90;;;;;;;;;;5040517;28;20021;-72
2022/07/14 12:08:25;;;;;;;3.72;0.80;;;;;;;;;;5041908;28;20056;-78
2022/07/14 12:10:51;;;;;;;1.25;0.70;;;;;;;;;;5041174;28;20074;-71
2022/07/14 12:13:17;;;;;;;1.58;0.90;;;;;;;;;;5040270;28;20079;-73
2022/07/14 12:15:43;;;;;;;1.10;1.00;;;;;;;;;;5042037;28;20424;-77
2022/07/14 12:18:10;;;;;;;7.93;1.02;;;;;;;;;;5041410;28;20107;-73
2022/07/14 12:20:39;;;;;;;1.00;0.70;;;;;;;;;;5041456;28;20105;-73
2022/07/14 12:23:05;;;;;;;1.10;0.75;;;;;;;;;;5040279;28;20115;-73
2022/07/14 12:25:40;;;;;;;3.10;0.70;;;;;;;;;;5040684;28;20120;-73
2022/07/14 12:28:12;;;;;;;6.03;1.10;;;;;;;;;;5041545;28;20127;-73
2022/07/14 12:30:42;;;;;;;1.95;0.80;;;;;;;;;;5040466;28;20134;-73
2022/07/14 12:33:08;;;;;;;0.75;0.73;;;;;;;;;;5039848;28;20507;-79
2022/07/14 12:35:33;;;;;;;0.95;0.90;;;;;;;;;;5041241;28;20025;-72
2022/07/14 12:37:59;;;;;;;1.50;0.90;;;;;;;;;;5041414;28;20055;-74
2022/07/14 12:40:25;;;;;;;0.88;0.80;;;;;;;;;;5040857;28;20041;-80
2022/07/14 12:42:50;;;;;;;1.60;0.93;;;;;;;;;;5039901;28;20021;-74
2022/07/14 12:45:15;;;;;;;1.65;1.13;;;;;;;;;;5041682;28;20062;-74
2022/07/14 12:47:48;;;;;;;2.08;0.82;;;;;;;;;;5041024;28;20348;-74
2022/07/14 12:50:23;;;;;;;2.97;0.88;;;;;;;;;;5040248;28;20083;-77
2022/07/14 12:52:56;;;;;;;5.97;0.93;;;;;;;;;;5040078;28;20041;-72
2022/07/14 12:55:36;;;;;;;0.82;0.82;;;;;;;;;;5040783;28;20446;-71
2022/07/14 12:58:08;;;;;;;1.73;0.95;;;;;;;;;;5039770;28;20021;-79
2022/07/14 13:00:35;;;;;;;0.90;0.90;;;;;;;;;;5040306;28;20033;-75
2022/07/14 13:03:16;;;;;;;1.83;0.80;;;;;;;;;;5044678;28;20020;-73
2022/07/14 13:06:08;;;;;;;1.48;0.90;;;;;;;;;;5044878;28;20124;-71
2022/07/14 13:08:35;;;;;;;2.85;1.02;;;;;;;;;;5039290;28;20403;-71
2022/07/14 13:11:01;;;;;;;1.90;0.90;;;;;;;;;;5044472;28;20029;-72
2022/07/14 13:13:31;;;;;;;2.95;1.00;;;;;;;;;;5045843;28;20108;-71
2022/07/14 13:16:18;;;;;;;0.80;0.80;;;;;;;;;;5043828;28;20609;-72
2022/07/14 13:19:12;;;;;;;1.27;0.90;;;;;;;;;;5045117;28;20104;-79
2022/07/14 13:21:44;;;;;;;1.42;1.10;;;;;;;;;;5023309;28;20498;-73
2022/07/14 13:24:13;;;;;;;1.02;0.90;;;;;;;;;;5044413;28;20355;-75
2022/07/14 13:26:38;;;;;;;2.25;0.80;;;;;;;;;;5036655;28;20040;-74
2022/07/14 13:29:04;;;;;;;1.25;1.00;;;;;;;;;;5040717;28;20029;-74
2022/07/14 13:31:29;;;;;;;2.10;0.90;;;;;;;;;;5033876;28;20021;-76
2022/07/14 13:33:58;;;;;;;1.55;1.00;;;;;;;;;;5032830;28;20093;-76
2022/07/14 13:36:24;;;;;;;1.90;1.00;;;;;;;;;;5032927;28;20455;-74
2022/07/14 13:38:50;;;;;;;0.90;0.90;;;;;;;;;;5030879;28;20025;-74
2022/07/14 13:41:16;;;;;;;3.63;0.90;;;;;;;;;;5030069;28;20021;-72
2022/07/14 13:43:41;;;;;;;1.73;1.15;;;;;;;;;;5030511;28;20326;-73
2022/07/14 13:46:07;;;;;;;1.30;1.20;;;;;;;;;;5032226;28;20082;-75
2022/07/14 13:48:33;;;;;;;0.90;0.90;;;;;;;;;;5032065;28;20037;-75
2022/07/14 13:53:42;;;;;;;1.80;0.93;;;;;;;;;;5033708;28;20056;-75
2022/07/14 13:56:08;;;;;;;1.00;0.80;;;;;;;;;;5032714;28;20024;-78
2022/07/14 13:58:34;;;;;;;1.10;1.00;;;;;;;;;;5031852;28;20352;-79
2022/07/14 14:00:59;;;;;;;3.72;1.10;;;;;;;;;;5039497;28;20155;-73
2022/07/14 14:03:26;;;;;;;1.35;1.25;;;;;;;;;;5042381;28;20126;-78
2022/07/14 14:05:54;;;;;;;3.20;1.50;;;;;;;;;;5044111;28;20416;-81
2022/07/14 14:08:20;;;;;;;2.00;1.00;;;;;;;;;;5042521;28;20025;-74
2022/07/14 14:10:45;;;;;;;1.33;1.02;;;;;;;;;;5043468;28;20040;-72
2022/07/14 14:13:11;;;;;;;1.80;0.93;;;;;;;;;;5043057;28;20029;-72
2022/07/14 14:15:36;;;;;;;1.20;1.00;;;;;;;;;;5040878;28;20461;-76
2022/07/14 14:18:02;;;;;;;1.85;1.42;;;;;;;;;;5042725;28;20157;-73
2022/07/14 14:20:27;;;;;;;1.17;0.98;;;;;;;;;;5041929;28;20017;-76
2022/07/14 14:22:52;;;;;;;1.20;1.10;;;;;;;;;;5041773;28;20037;-74
2022/07/14 14:25:18;;;;;;;1.85;1.15;;;;;;;;;;5042762;28;20044;-74
2022/07/14 14:27:43;;;;;;;2.45;1.10;;;;;;;;;;5042540;28;20448;-73
2022/07/14 14:30:09;;;;;;;1.92;1.00;;;;;;;;;;5042342;28;20356;-73
2022/07/14 14:32:34;;;;;;;1.20;1.10;;;;;;;;;;5043019;28;20585;-75
2022/07/14 14:34:59;;;;;;;3.50;1.20;;;;;;;;;;5041161;28;20352;-74
2022/07/14 14:37:25;;;;;;;1.55;1.13;;;;;;;;;;5041284;28;20367;-76
2022/07/14 14:39:50;;;;;;;1.98;1.45;;;;;;;;;;5040890;28;20404;-78
2022/07/14 14:42:16;;;;;;;2.50;1.10;;;;;;;;;;5031131;28;20353;-73
2022/07/14 14:44:42;;;;;;;1.33;1.20;;;;;;;;;;5030727;28;20119;-78
2022/07/14 14:47:07;;;;;;;0.88;0.88;;;;;;;;;;5030431;28;20124;-72
2022/07/14 14:49:35;;;;;;;1.17;1.10;;;;;;;;;;5030288;28;20017;-76
2022/07/14 14:52:00;;;;;;;1.30;1.10;;;;;;;;;;5032093;28;20128;-71
2022/07/14 14:54:26;;;;;;;1.08;1.00;;;;;;;;;;5030700;28;20047;-74
2022/07/14 14:56:51;;;;;;;2.50;1.25;;;;;;;;;;5030627;28;20610;-73
2022/07/14 14:59:16;;;;;;;2.45;1.17;;;;;;;;;;5029349;28;20028;-72